Time;durP1;ratioP1;P1;durP2;ratioP2;P2;SDS_P1;SDS_P2;PMS_P1;PMS_P2;Temp;Humidity;BMP_temperature;BMP_pressure;BME280_temperature;BME280_humidity;BME280_pressure;Samples;Min_cycle;Max_cycle;Signal;HPM_P1;HPM_P2
2021/04/29 00:01:55;;;;;;;22.37;13.87;;;;;;;8.33;43.79;99788.88;1628138;85;25822;-74
2021/04/29 00:04:21;;;;;;;21.23;13.40;;;;;;;8.33;43.90;99783.66;1600874;86;28054;-74
2021/04/29 00:06:47;;;;;;;30.02;13.32;;;;;;;8.31;44.08;99783.01;1629922;86;25693;-74
2021/04/29 00:09:13;;;;;;;25.37;12.68;;;;;;;8.32;44.15;99783.33;1629495;86;34403;-74
2021/04/29 00:11:39;;;;;;;25.60;12.80;;;;;;;8.33;44.26;99783.17;1629502;86;25805;-75
2021/04/29 00:14:08;;;;;;;23.92;13.30;;;;;;;8.33;44.43;99777.16;1628952;86;25771;-74
2021/04/29 00:16:34;;;;;;;26.85;15.23;;;;;;;8.31;44.44;99780.41;1629118;86;25845;-74
2021/04/29 00:19:00;;;;;;;19.92;12.90;;;;;;;8.29;44.59;99784.95;1629467;86;25708;-74
2021/04/29 00:21:27;;;;;;;23.22;13.05;;;;;;;8.25;44.72;99781.07;1628872;86;26109;-74
2021/04/29 00:23:53;;;;;;;34.08;13.40;;;;;;;8.23;44.77;99776.02;1627201;86;25726;-74
2021/04/29 00:26:19;;;;;;;24.03;13.10;;;;;;;8.18;44.90;99771.78;1601576;88;25812;-74
2021/04/29 00:28:45;;;;;;;27.47;14.07;;;;;;;8.11;44.91;99766.44;1629431;86;26544;-74
2021/04/29 00:31:10;;;;;;;23.73;13.20;;;;;;;8.13;44.99;99766.25;1628143;86;25812;-74
2021/04/29 00:33:36;;;;;;;22.60;13.85;;;;;;;8.09;45.07;99767.08;1627332;86;33938;-74
2021/04/29 00:36:04;;;;;;;20.73;13.23;;;;;;;8.03;45.16;99763.84;1600739;88;31274;-75
2021/04/29 00:38:30;;;;;;;22.90;13.98;;;;;;;7.96;45.32;99763.66;1629012;86;25885;-75
2021/04/29 00:40:57;;;;;;;20.72;12.78;;;;;;;7.92;45.54;99770.17;1628979;86;25705;-74
2021/04/29 00:43:23;;;;;;;24.57;13.88;;;;;;;7.86;45.62;99766.92;1628882;85;25788;-74
2021/04/29 00:45:49;;;;;;;22.67;14.30;;;;;;;7.78;45.76;99761.23;1628403;86;25978;-75
2021/04/29 00:48:16;;;;;;;22.13;14.30;;;;;;;7.74;45.97;99756.00;1628809;86;31289;-74
2021/04/29 00:50:42;;;;;;;20.52;14.15;;;;;;;7.71;46.08;99761.53;1629012;86;25773;-75
2021/04/29 00:53:08;;;;;;;20.82;12.95;;;;;;;7.67;46.12;99760.25;1628009;86;25777;-74
2021/04/29 00:55:34;;;;;;;20.17;13.53;;;;;;;7.64;46.31;99755.83;1628943;86;25351;-74
2021/04/29 00:58:02;;;;;;;20.68;13.00;;;;;;;7.62;46.35;99755.20;1629234;85;25805;-74
2021/04/29 01:00:29;;;;;;;25.05;14.33;;;;;;;7.57;46.48;99762.17;1628950;86;25691;-74
2021/04/29 01:03:22;;;;;;;20.17;13.93;;;;;;;7.52;46.59;99750.94;1614039;87;25827;-74
2021/04/29 01:05:56;;;;;;;20.02;13.80;;;;;;;7.50;46.81;99749.47;1601460;88;25756;-75
2021/04/29 01:08:46;;;;;;;21.60;13.35;;;;;;;7.44;47.01;99754.02;1627133;86;25845;-75
2021/04/29 01:11:20;;;;;;;20.25;13.20;;;;;;;7.38;47.17;99748.17;1628886;86;33017;-75
2021/04/29 01:13:53;;;;;;;19.15;13.38;;;;;;;7.32;47.35;99753.52;1627629;86;25824;-75
2021/04/29 01:16:23;;;;;;;21.27;13.55;;;;;;;7.27;47.50;99746.19;1629096;86;25817;-75
2021/04/29 01:18:53;;;;;;;25.35;14.00;;;;;;;7.29;47.69;99744.25;1628902;85;25742;-75
2021/04/29 01:21:20;;;;;;;22.93;13.18;;;;;;;7.25;47.77;99746.83;1629203;85;25931;-75
2021/04/29 01:24:21;;;;;;;26.00;14.43;;;;;;;7.21;47.84;99746.83;1629431;85;25804;-75
2021/04/29 01:27:02;;;;;;;22.17;14.53;;;;;;;7.17;47.89;99748.59;1663096;84;25800;-75
2021/04/29 01:29:31;;;;;;;22.48;14.20;;;;;;;7.11;48.05;99746.95;1663055;84;25851;-75
2021/04/29 01:31:59;;;;;;;24.57;14.73;;;;;;;7.07;48.13;99740.95;1645536;85;25955;-75
2021/04/29 01:34:30;;;;;;;21.02;14.28;;;;;;;7.06;48.24;99745.80;1675222;84;25805;-75
2021/04/29 01:36:56;;;;;;;23.62;14.30;;;;;;;7.09;48.40;99741.58;1635314;86;26479;-75
2021/04/29 01:39:22;;;;;;;20.77;13.83;;;;;;;7.10;48.46;99748.42;1666162;84;25692;-76
2021/04/29 01:41:52;;;;;;;19.40;13.23;;;;;;;7.07;48.48;99738.34;1664956;84;25820;-75
2021/04/29 01:44:21;;;;;;;;;;;;;;;7.05;48.60;99738.49;1667141;84;25773;-76
2021/04/29 01:46:48;;;;;;;21.85;13.65;;;;;;;7.06;48.86;99736.70;1664088;84;26483;-75
2021/04/29 01:49:14;;;;;;;22.50;13.43;;;;;;;7.05;48.83;99740.28;1645610;85;26341;-75
2021/04/29 01:51:42;;;;;;;22.70;14.53;;;;;;;7.05;48.89;99738.49;1674962;84;25769;-75
2021/04/29 01:54:12;;;;;;;22.05;13.43;;;;;;;7.04;48.91;99742.07;1635208;86;25958;-75
2021/04/29 01:56:39;;;;;;;24.43;14.60;;;;;;;7.05;49.17;99735.89;1647156;84;25828;-72
2021/04/29 01:59:09;;;;;;;25.00;13.40;;;;;;;7.01;49.15;99734.59;1676010;84;25854;-72
2021/04/29 02:01:38;;;;;;;19.60;13.95;;;;;;;7.00;49.31;99737.34;1635502;86;25757;-72
2021/04/29 02:04:05;;;;;;;22.32;14.90;;;;;;;7.00;49.43;99731.66;1664136;84;25737;-74
2021/04/29 02:06:30;;;;;;;24.80;14.50;;;;;;;6.98;49.52;99737.48;1664620;84;26601;-74
2021/04/29 02:08:56;;;;;;;20.90;14.57;;;;;;;6.96;49.71;99736.84;1647178;85;26495;-74
2021/04/29 02:11:23;;;;;;;24.57;15.17;;;;;;;6.95;49.77;99734.39;1676480;84;25385;-75
2021/04/29 02:13:52;;;;;;;22.95;13.90;;;;;;;6.93;49.94;99733.73;1635614;86;25889;-74
2021/04/29 02:16:42;;;;;;;24.67;14.78;;;;;;;6.92;50.02;99730.81;1663717;84;25753;-74
2021/04/29 02:19:10;;;;;;;23.45;14.85;;;;;;;6.91;50.18;99730.50;1647201;85;25730;-75
2021/04/29 02:21:38;;;;;;;24.15;14.73;;;;;;;6.87;50.27;99725.63;1646479;85;25767;-75
2021/04/29 02:24:06;;;;;;;21.55;14.50;;;;;;;6.86;50.38;99725.27;1675498;84;25703;-75
2021/04/29 02:26:34;;;;;;;22.37;13.98;;;;;;;6.85;50.48;99722.84;1675933;84;25800;-75
2021/04/29 02:29:05;;;;;;;20.37;13.25;;;;;;;6.82;50.59;99724.43;1635584;86;25878;-74
2021/04/29 02:31:35;;;;;;;22.32;13.58;;;;;;;6.79;50.62;99720.39;1647650;84;25918;-74
2021/04/29 02:34:02;;;;;;;25.82;14.18;;;;;;;6.74;50.73;99721.80;1676855;84;25786;-75
2021/04/29 02:36:29;;;;;;;21.82;13.95;;;;;;;6.70;50.81;99720.02;1634890;86;25362;-74
2021/04/29 02:38:56;;;;;;;21.65;14.33;;;;;;;6.69;50.97;99718.89;1647111;85;25753;-75
2021/04/29 02:41:23;;;;;;;22.45;14.07;;;;;;;6.68;51.02;99719.34;1675400;84;25947;-75
2021/04/29 02:43:50;;;;;;;23.65;14.80;;;;;;;6.67;51.13;99714.64;1662156;84;26439;-74
2021/04/29 02:46:16;;;;;;;21.05;14.07;;;;;;;6.67;51.24;99713.34;1675789;84;25800;-74
2021/04/29 02:48:42;;;;;;;18.95;13.05;;;;;;;6.67;51.31;99717.23;1635016;86;25903;-75
2021/04/29 02:51:08;;;;;;;21.27;14.90;;;;;;;6.67;51.27;99715.94;1664508;84;34043;-75
2021/04/29 02:53:35;;;;;;;25.45;15.00;;;;;;;6.64;51.46;99720.64;1663995;84;25765;-75
2021/04/29 02:56:02;;;;;;;23.18;14.10;;;;;;;6.63;51.56;99720.32;1664144;84;25941;-71
2021/04/29 02:58:28;;;;;;;25.25;15.48;;;;;;;6.64;51.71;99712.85;1646170;85;25427;-71
2021/04/29 03:00:58;;;;;;;23.62;15.32;;;;;;;6.65;51.74;99717.06;1675690;84;25748;-74
2021/04/29 03:03:23;;;;;;;24.98;16.12;;;;;;;6.62;51.82;99714.78;1635894;86;25373;-74
2021/04/29 03:05:49;;;;;;;26.87;14.57;;;;;;;6.59;51.89;99718.98;1648565;85;27854;-75
2021/04/29 03:08:15;;;;;;;22.60;14.40;;;;;;;6.58;52.08;99716.08;1676972;84;25873;-75
2021/04/29 03:10:41;;;;;;;27.53;15.27;;;;;;;6.54;52.19;99718.64;1635374;86;25788;-75
2021/04/29 03:13:06;;;;;;;22.20;15.63;;;;;;;6.52;52.29;99721.41;1646270;85;25768;-75
2021/04/29 03:15:32;;;;;;;27.90;15.43;;;;;;;6.50;52.38;99716.84;1676690;84;32992;-75
2021/04/29 03:17:58;;;;;;;22.67;14.30;;;;;;;6.48;52.51;99713.58;1636054;86;27892;-75
2021/04/29 03:20:24;;;;;;;26.40;15.18;;;;;;;6.47;52.63;99708.56;1664179;84;25844;-74
2021/04/29 03:22:50;;;;;;;25.10;14.03;;;;;;;6.45;52.72;99706.10;1646589;84;25882;-75
2021/04/29 03:25:16;;;;;;;25.95;14.85;;;;;;;6.42;52.90;99709.82;1675602;84;25780;-76
2021/04/29 03:27:42;;;;;;;27.62;15.03;;;;;;;6.39;53.07;99706.23;1635179;86;25932;-75
2021/04/29 03:30:09;;;;;;;24.90;15.67;;;;;;;6.39;53.32;99708.03;1645909;85;32498;-74
2021/04/29 03:32:35;;;;;;;22.07;14.50;;;;;;;6.39;53.41;99707.54;1677123;84;25795;-75
2021/04/29 03:35:03;;;;;;;28.60;15.47;;;;;;;6.37;53.52;99706.87;1636574;85;25813;-74
2021/04/29 03:37:29;;;;;;;29.63;16.30;;;;;;;6.37;53.71;99715.95;1646060;85;26837;-75
2021/04/29 03:39:55;;;;;;;22.42;15.28;;;;;;;6.38;53.87;99711.57;1675822;84;25804;-75
2021/04/29 03:42:21;;;;;;;25.20;15.93;;;;;;;6.37;53.86;99710.77;1636193;85;30508;-75
2021/04/29 03:44:46;;;;;;;25.23;16.43;;;;;;;6.39;54.08;99715.33;1663999;84;25821;-75
2021/04/29 03:47:12;;;;;;;25.77;14.63;;;;;;;6.41;54.27;99715.16;1663747;84;25922;-75
2021/04/29 03:49:38;;;;;;;28.60;16.40;;;;;;;6.40;54.46;99711.75;1646550;85;25903;-75
2021/04/29 03:52:04;;;;;;;23.93;15.60;;;;;;;6.41;54.64;99710.80;1675872;84;33980;-75
2021/04/29 03:54:31;;;;;;;26.20;16.95;;;;;;;6.42;54.74;99705.92;1633823;86;25733;-75
2021/04/29 03:56:56;;;;;;;26.55;16.73;;;;;;;6.44;54.83;99705.78;1646882;84;25716;-75
2021/04/29 03:59:23;;;;;;;25.93;16.63;;;;;;;6.45;54.97;99707.41;1676366;84;25358;-75
2021/04/29 04:01:51;;;;;;;25.05;16.32;;;;;;;6.49;55.13;99704.00;1637085;86;25848;-75
2021/04/29 04:04:17;;;;;;;25.40;16.32;;;;;;;6.50;55.26;99701.27;1646002;85;25772;-75
2021/04/29 04:06:43;;;;;;;22.48;15.65;;;;;;;6.54;55.36;99706.46;1676117;84;25804;-74
2021/04/29 04:09:09;;;;;;;23.70;15.53;;;;;;;6.57;55.48;99702.75;1662775;84;25772;-75
2021/04/29 04:11:35;;;;;;;26.93;16.30;;;;;;;6.60;55.50;99708.92;1676419;84;25870;-75
2021/04/29 04:14:01;;;;;;;25.10;16.07;;;;;;;6.61;55.59;99711.37;1676642;84;25891;-74
2021/04/29 04:16:29;;;;;;;29.40;16.70;;;;;;;6.63;55.68;99706.84;1636289;86;32616;-75
2021/04/29 04:18:56;;;;;;;25.05;15.35;;;;;;;6.64;55.85;99708.47;1646142;85;25846;-75
2021/04/29 04:21:23;;;;;;;25.75;16.67;;;;;;;6.67;55.90;99709.45;1675716;84;25766;-75
2021/04/29 04:23:48;;;;;;;26.35;15.98;;;;;;;6.70;56.13;99705.73;1635405;86;25968;-74
2021/04/29 04:26:14;;;;;;;24.77;16.10;;;;;;;6.72;56.20;99704.29;1646493;84;25952;-75
2021/04/29 04:28:40;;;;;;;23.00;15.50;;;;;;;6.74;56.29;99708.36;1676361;84;32515;-75
2021/04/29 04:31:07;;;;;;;29.25;16.95;;;;;;;6.74;56.41;99703.16;1669422;83;43655;-74
2021/04/29 04:33:33;;;;;;;22.03;16.10;;;;;;;6.77;56.63;99708.53;1635285;86;25844;-75
2021/04/29 04:35:58;;;;;;;26.27;16.80;;;;;;;6.77;56.72;99704.64;1645888;85;25552;-75
2021/04/29 04:38:24;;;;;;;28.77;16.60;;;;;;;6.75;57.07;99698.28;1676364;84;25792;-74
2021/04/29 04:40:50;;;;;;;25.13;16.53;;;;;;;6.77;57.21;99700.74;1676630;84;34007;-74
2021/04/29 04:43:16;;;;;;;30.63;17.50;;;;;;;6.79;57.39;99702.67;1635903;86;27838;-74
2021/04/29 04:45:43;;;;;;;28.57;17.03;;;;;;;6.78;57.57;99701.05;1646933;85;26165;-74
2021/04/29 04:48:13;;;;;;;22.80;16.27;;;;;;;6.81;57.83;99706.74;1675549;84;25732;-74
2021/04/29 04:50:39;;;;;;;25.40;16.50;;;;;;;6.86;57.79;99701.09;1636836;85;25765;-75
2021/04/29 04:53:05;;;;;;;24.80;15.90;;;;;;;6.88;57.98;99696.06;1646879;85;25774;-74
2021/04/29 04:55:34;;;;;;;31.00;16.27;;;;;;;6.93;58.13;99698.66;1675943;84;29661;-74
2021/04/29 04:58:00;;;;;;;22.22;15.65;;;;;;;6.95;58.31;99698.83;1675440;84;25743;-75
2021/04/29 05:00:26;;;;;;;25.80;15.73;;;;;;;6.96;58.47;99702.27;1662161;84;25767;-75
2021/04/29 05:02:51;;;;;;;27.25;16.37;;;;;;;7.00;58.77;99697.06;1676974;84;25298;-74
2021/04/29 05:05:17;;;;;;;25.63;15.07;;;;;;;7.02;58.83;99698.54;1677364;84;31226;-74
2021/04/29 05:07:43;;;;;;;22.93;14.80;;;;;;;7.10;58.67;99693.36;1635654;85;30722;-75
2021/04/29 05:10:10;;;;;;;27.67;15.40;;;;;;;7.20;58.76;99685.90;1645430;85;25830;-74
2021/04/29 05:12:37;;;;;;;28.42;16.42;;;;;;;7.28;58.79;99689.34;1674368;84;25847;-74
2021/04/29 05:15:06;;;;;;;30.88;15.53;;;;;;;7.36;58.84;99684.62;1674835;84;25768;-75
2021/04/29 05:17:33;;;;;;;24.50;15.75;;;;;;;7.45;58.72;99682.38;1635609;86;25769;-75
2021/04/29 05:19:59;;;;;;;26.52;17.12;;;;;;;7.52;58.78;99678.63;1644798;85;25710;-75
2021/04/29 05:22:24;;;;;;;27.87;17.50;;;;;;;7.60;58.89;99677.83;1676034;84;25820;-75
2021/04/29 05:24:50;;;;;;;26.73;16.77;;;;;;;7.67;58.98;99671.81;1634401;84;25869;-74
2021/04/29 05:27:16;;;;;;;25.47;17.20;;;;;;;7.73;58.87;99669.85;1662763;84;25859;-75
2021/04/29 05:29:42;;;;;;;25.70;16.67;;;;;;;7.78;59.26;99668.07;1646150;85;34996;-74
2021/04/29 05:32:08;;;;;;;25.27;18.00;;;;;;;7.83;59.10;99662.36;1678311;82;30684;-74
2021/04/29 05:34:35;;;;;;;26.00;16.67;;;;;;;7.90;59.15;99664.14;1635394;86;25766;-74
2021/04/29 05:37:01;;;;;;;26.45;18.20;;;;;;;7.97;59.20;99665.61;1644830;85;26496;-74
2021/04/29 05:39:27;;;;;;;30.50;17.57;;;;;;;8.03;59.35;99658.93;1673410;84;25981;-75
2021/04/29 05:41:52;;;;;;;30.80;18.37;;;;;;;8.09;59.44;99662.16;1634338;85;33684;-75
2021/04/29 05:44:18;;;;;;;27.00;17.20;;;;;;;8.15;59.66;99653.69;1661363;84;29735;-75
2021/04/29 05:46:44;;;;;;;28.23;17.17;;;;;;;8.17;59.59;99653.84;1644631;85;25477;-75
2021/04/29 05:49:10;;;;;;;29.67;18.33;;;;;;;8.22;60.01;99646.84;1674053;84;25804;-75
2021/04/29 05:51:36;;;;;;;27.53;16.70;;;;;;;8.27;59.74;99651.06;1633380;86;25762;-74
2021/04/29 05:54:21;;;;;;;22.63;17.00;;;;;;;8.31;60.02;99647.12;1662350;84;34093;-74
2021/04/29 05:56:47;;;;;;;24.75;17.12;;;;;;;8.35;59.91;99651.03;1669204;84;25659;-75
2021/04/29 05:59:13;;;;;;;34.07;18.03;;;;;;;8.43;59.89;99654.94;1671092;84;26866;-75
2021/04/29 06:01:39;;;;;;;23.50;17.30;;;;;;;8.48;59.85;99649.20;1701692;82;28496;-74
2021/04/29 06:04:05;;;;;;;29.53;17.43;;;;;;;8.55;60.31;99650.16;1687528;83;25715;-75
2021/04/29 06:06:31;;;;;;;25.10;17.27;;;;;;;8.60;59.83;99647.87;1700194;82;25775;-74
2021/04/29 06:08:57;;;;;;;27.93;16.12;;;;;;;8.67;59.92;99641.47;1687672;83;32296;-75
2021/04/29 06:11:23;;;;;;;26.60;17.85;;;;;;;8.75;60.33;99641.94;1682640;82;25853;-75
2021/04/29 06:13:49;;;;;;;25.47;16.37;;;;;;;8.82;59.92;99641.58;1686699;83;25839;-74
2021/04/29 06:16:15;;;;;;;26.07;16.40;;;;;;;8.86;60.02;99644.95;1701173;82;25785;-74
2021/04/29 06:18:42;;;;;;;23.22;16.15;;;;;;;8.93;59.87;99641.19;1701218;82;25773;-75
2021/04/29 06:21:08;;;;;;;25.27;16.12;;;;;;;9.03;59.85;99638.34;1701012;83;25810;-74
2021/04/29 06:23:35;;;;;;;28.02;16.12;;;;;;;9.17;60.34;99630.30;1688164;83;25816;-74
2021/04/29 06:26:01;;;;;;;24.15;16.07;;;;;;;9.27;59.79;99634.77;1700909;83;25717;-74
2021/04/29 06:28:28;;;;;;;37.15;17.45;;;;;;;9.32;59.78;99632.44;1700317;83;25827;-75
2021/04/29 06:30:54;;;;;;;32.48;16.80;;;;;;;9.39;59.67;99635.18;1687968;83;25750;-74
2021/04/29 06:33:24;;;;;;;28.07;17.35;;;;;;;9.39;59.64;99628.66;1701391;82;25791;-73
2021/04/29 06:35:53;;;;;;;26.55;17.42;;;;;;;9.45;59.77;99631.87;1697962;82;26436;-71
2021/04/29 06:38:19;;;;;;;26.00;16.32;;;;;;;9.54;59.90;99634.71;1697323;82;26169;-72
2021/04/29 06:40:45;;;;;;;24.63;17.50;;;;;;;9.60;59.96;99635.80;1700706;83;26570;-71
2021/04/29 06:43:11;;;;;;;27.27;17.50;;;;;;;9.66;59.69;99642.45;1682727;84;34905;-73
2021/04/29 06:45:40;;;;;;;24.55;17.00;;;;;;;9.74;59.60;99645.48;1660396;84;25822;-72
2021/04/29 06:48:08;;;;;;;28.85;17.57;;;;;;;9.83;59.45;99646.22;1650326;85;26086;-72
2021/04/29 06:50:37;;;;;;;24.95;16.75;;;;;;;9.94;59.55;99645.77;1669558;84;25357;-71
2021/04/29 06:53:04;;;;;;;30.65;16.95;;;;;;;10.16;60.50;99642.77;1684306;83;25864;-73
2021/04/29 06:55:31;;;;;;;39.23;18.37;;;;;;;10.26;59.45;99644.63;1700042;82;25842;-73
2021/04/29 06:57:58;;;;;;;29.60;16.82;;;;;;;10.31;59.24;99634.48;1684248;83;25962;-73
2021/04/29 07:00:24;;;;;;;28.23;16.73;;;;;;;10.39;59.14;99640.08;1697044;82;25599;-74
2021/04/29 07:02:50;;;;;;;26.60;17.00;;;;;;;10.48;59.18;99640.81;1683091;83;25703;-74
2021/04/29 07:05:17;;;;;;;22.77;17.05;;;;;;;10.57;58.89;99643.13;1698155;83;26264;-74
2021/04/29 07:07:43;;;;;;;25.05;16.90;;;;;;;10.65;58.70;99640.92;1667558;83;25801;-68
2021/04/29 07:10:11;;;;;;;28.83;17.12;;;;;;;10.73;58.61;99642.62;1698020;83;32572;-73
2021/04/29 07:12:36;;;;;;;27.58;17.45;;;;;;;10.85;58.56;99641.13;1683996;83;26703;-72
2021/04/29 07:15:03;;;;;;;22.60;16.87;;;;;;;10.95;58.39;99635.62;1696479;83;29473;-73
2021/04/29 07:17:29;;;;;;;22.82;16.90;;;;;;;11.02;58.18;99633.86;1666756;83;25869;-73
2021/04/29 07:19:55;;;;;;;24.77;17.35;;;;;;;11.08;58.04;99632.64;1701892;82;34954;-72
2021/04/29 07:22:20;;;;;;;28.80;16.17;;;;;;;11.16;57.99;99636.11;1667936;84;32592;-72
2021/04/29 07:24:46;;;;;;;23.37;17.27;;;;;;;11.25;57.91;99635.01;1699362;83;26122;-72
2021/04/29 07:27:12;;;;;;;29.37;16.23;;;;;;;11.29;57.73;99630.53;1683068;83;30774;-72
2021/04/29 07:29:38;;;;;;;26.37;16.90;;;;;;;11.38;57.72;99629.90;1699097;83;29500;-72
2021/04/29 07:32:05;;;;;;;22.15;15.90;;;;;;;11.48;57.46;99628.25;1687799;83;25773;-72
2021/04/29 07:34:31;;;;;;;24.65;16.27;;;;;;;11.56;57.48;99625.50;1663597;84;26483;-72
2021/04/29 07:36:59;;;;;;;23.50;16.75;;;;;;;11.63;57.13;99617.72;1701969;83;25763;-72
2021/04/29 07:39:25;;;;;;;23.38;15.45;;;;;;;11.70;57.22;99616.77;1688713;83;25951;-72
2021/04/29 07:41:51;;;;;;;21.93;16.50;;;;;;;11.78;56.92;99614.00;1701149;82;28017;-72
2021/04/29 07:44:17;;;;;;;33.50;17.45;;;;;;;11.84;56.75;99621.59;1701432;82;35182;-71
2021/04/29 07:46:43;;;;;;;30.82;16.85;;;;;;;11.88;56.64;99615.50;1702461;82;32826;-72
2021/04/29 07:49:09;;;;;;;26.50;17.92;;;;;;;11.96;56.72;99609.60;1701885;84;26496;-72
2021/04/29 07:51:35;;;;;;;25.37;16.43;;;;;;;12.03;56.57;99596.56;1701695;82;31392;-72
2021/04/29 07:54:04;;;;;;;23.27;16.48;;;;;;;12.13;56.85;99597.50;1687679;83;25856;-72
2021/04/29 07:56:31;;;;;;;22.50;17.35;;;;;;;12.21;56.75;99594.72;1701566;82;25648;-72
2021/04/29 07:58:57;;;;;;;24.50;16.60;;;;;;;12.25;56.56;99586.80;1668106;84;25892;-72
2021/04/29 08:01:23;;;;;;;22.10;16.65;;;;;;;12.27;56.29;99583.96;1701192;82;26183;-72
2021/04/29 08:03:49;;;;;;;24.27;16.33;;;;;;;12.33;56.45;99583.17;1688760;83;32734;-72
2021/04/29 08:06:14;;;;;;;23.90;15.40;;;;;;;12.42;56.41;99580.20;1660717;84;29522;-73
2021/04/29 08:08:41;;;;;;;22.73;15.93;;;;;;;12.51;55.96;99580.03;1671749;84;34892;-74
2021/04/29 08:11:08;;;;;;;20.60;14.33;;;;;;;12.57;55.85;99572.17;1702683;82;25330;-73
2021/04/29 08:13:34;;;;;;;27.95;15.78;;;;;;;12.68;55.94;99568.17;1668727;84;26032;-72
2021/04/29 08:16:00;;;;;;;22.70;15.35;;;;;;;12.81;56.06;99573.95;1702089;83;25755;-72
2021/04/29 08:18:26;;;;;;;23.60;14.83;;;;;;;12.93;55.86;99574.16;1687698;83;25749;-72
2021/04/29 08:20:52;;;;;;;19.77;14.60;;;;;;;13.05;55.81;99576.01;1682667;82;25415;-72
2021/04/29 08:23:18;;;;;;;19.70;14.65;;;;;;;13.17;55.19;99578.03;1683027;83;33148;-73
2021/04/29 08:25:44;;;;;;;24.15;13.85;;;;;;;13.26;55.00;99575.56;1687745;83;25737;-67
2021/04/29 08:28:10;;;;;;;20.25;13.65;;;;;;;13.33;54.61;99575.03;1700228;82;32743;-66
2021/04/29 08:30:36;;;;;;;20.72;12.85;;;;;;;13.42;54.32;99576.95;1683577;84;25864;-67
2021/04/29 08:33:03;;;;;;;24.15;13.45;;;;;;;13.58;53.84;99572.59;1701337;82;34944;-67
2021/04/29 08:35:30;;;;;;;22.52;14.35;;;;;;;13.58;53.84;99572.59;1701584;82;25786;-71
2021/04/29 08:37:56;;;;;;;24.30;14.58;;;;;;;13.64;53.61;99568.34;1688778;83;25721;-72
2021/04/29 08:40:24;;;;;;;20.97;14.73;;;;;;;13.70;53.57;99555.22;1701839;83;25702;-73
2021/04/29 08:43:09;;;;;;;23.07;15.00;;;;;;;13.82;53.57;99551.45;1701620;84;25830;-72
2021/04/29 08:45:36;;;;;;;27.67;15.13;;;;;;;13.94;53.18;99550.29;1701899;82;25809;-73
2021/04/29 08:48:02;;;;;;;20.90;13.45;;;;;;;14.01;53.07;99543.72;1700324;82;25763;-73
2021/04/29 08:50:31;;;;;;;17.85;14.10;;;;;;;14.11;52.91;99544.89;1659675;84;26563;-71
2021/04/29 08:53:04;;;;;;;22.70;14.15;;;;;;;14.22;52.55;99542.13;1671375;84;25725;-71
2021/04/29 08:55:37;;;;;;;22.15;14.10;;;;;;;14.28;52.20;99541.28;1652738;82;26583;-72
2021/04/29 08:58:06;;;;;;;22.22;15.50;;;;;;;14.34;52.30;99537.01;1671268;83;25480;-68
2021/04/29 09:00:32;;;;;;;18.25;13.32;;;;;;;14.39;52.05;99531.92;1689500;83;25894;-72
2021/04/29 09:03:14;;;;;;;20.12;13.05;;;;;;;14.40;51.74;99523.02;1671403;84;26452;-67
2021/04/29 09:06:01;;;;;;;19.85;13.90;;;;;;;14.44;51.67;99527.65;1694057;82;25481;-68
2021/04/29 09:08:42;;;;;;;20.50;13.98;;;;;;;14.51;51.78;99532.05;1697481;82;25660;-68
2021/04/29 09:11:17;;;;;;;22.52;14.10;;;;;;;14.59;51.66;99525.27;1687285;83;25857;-73
2021/04/29 09:13:57;;;;;;;17.50;13.10;;;;;;;14.65;51.41;99524.44;1699571;82;25737;-74
2021/04/29 09:16:24;;;;;;;23.30;13.00;;;;;;;14.72;50.99;99524.38;1656648;84;25720;-74
2021/04/29 09:18:50;;;;;;;21.17;13.48;;;;;;;14.76;50.73;99525.07;1632809;84;25869;-69
2021/04/29 09:21:16;;;;;;;19.50;12.25;;;;;;;14.85;50.54;99528.24;1699681;82;31264;-67
2021/04/29 09:23:46;;;;;;;20.62;13.20;;;;;;;14.90;50.32;99523.15;1666799;83;26104;-68
2021/04/29 09:26:16;;;;;;;22.30;13.20;;;;;;;14.94;49.83;99525.63;1671338;84;26041;-67
2021/04/29 09:28:50;;;;;;;24.87;11.93;;;;;;;14.98;49.73;99524.72;1700618;82;26642;-73
2021/04/29 09:31:20;;;;;;;24.27;16.55;;;;;;;15.01;49.75;99521.66;1700805;82;25768;-72
2021/04/29 09:33:54;;;;;;;47.75;19.42;;;;;;;15.06;49.51;99523.94;1687603;83;25695;-72
2021/04/29 09:36:36;;;;;;;26.17;16.30;;;;;;;15.12;49.23;99516.20;1698989;82;25720;-71
2021/04/29 09:39:14;;;;;;;26.82;16.35;;;;;;;15.17;49.11;99520.28;1700853;82;25941;-72
2021/04/29 09:41:47;;;;;;;23.30;13.30;;;;;;;15.28;52.41;99515.66;1681415;82;25897;-72
2021/04/29 09:44:18;;;;;;;19.98;13.80;;;;;;;15.61;50.65;99511.90;1682575;84;25969;-72
2021/04/29 09:46:51;;;;;;;22.13;12.80;;;;;;;15.73;49.46;99509.64;1700785;82;25782;-72
2021/04/29 09:49:31;;;;;;;22.62;15.65;;;;;;;15.83;49.60;99510.98;1679958;83;25769;-73
2021/04/29 09:56:03;;;;;;;27.45;17.85;;;;;;;15.97;50.41;99500.56;1700894;82;26336;-72
2021/04/29 09:58:30;;;;;;;28.50;20.45;;;;;;;16.18;49.09;99502.73;1684682;83;25944;-67
2021/04/29 10:00:56;;;;;;;20.95;12.18;;;;;;;16.29;48.45;99496.42;1701227;83;25975;-71
2021/04/29 10:03:21;;;;;;;27.98;21.65;;;;;;;16.41;47.71;99484.06;1666904;83;34950;-71
2021/04/29 10:05:53;;;;;;;28.83;17.15;;;;;;;16.55;48.16;99484.16;1700264;82;32619;-71
2021/04/29 10:08:22;;;;;;;17.67;13.03;;;;;;;16.67;48.34;99483.37;1646470;83;26831;-67
2021/04/29 10:10:49;;;;;;;22.93;13.20;;;;;;;16.84;47.32;99479.89;1679039;83;25425;-67
2021/04/29 10:13:18;;;;;;;19.15;12.15;;;;;;;16.95;47.00;99472.22;1671156;84;25663;-68
2021/04/29 10:15:45;;;;;;;15.98;11.85;;;;;;;17.08;46.94;99475.44;1699777;82;25755;-66
2021/04/29 10:18:13;;;;;;;22.35;13.93;;;;;;;17.22;46.66;99472.05;1657875;84;25448;-68
2021/04/29 10:20:44;;;;;;;18.60;13.08;;;;;;;17.37;46.71;99470.25;1670507;84;25746;-69
2021/04/29 10:23:17;;;;;;;23.00;13.45;;;;;;;17.46;46.62;99469.37;1700456;82;25814;-68
2021/04/29 10:25:57;;;;;;;17.07;11.68;;;;;;;17.64;46.59;99457.86;1699091;82;26927;-72
2021/04/29 10:28:43;;;;;;;21.23;12.15;;;;;;;17.78;46.19;99463.69;1700919;82;25735;-71
2021/04/29 10:31:23;;;;;;;24.05;11.73;;;;;;;17.90;46.11;99463.17;1700519;82;25901;-73
2021/04/29 10:33:56;;;;;;;20.10;12.00;;;;;;;18.01;45.43;99457.56;1686750;83;25695;-67
2021/04/29 10:36:25;;;;;;;16.00;10.50;;;;;;;18.07;45.82;99446.83;1698903;82;26072;-68
2021/04/29 10:38:51;;;;;;;16.07;11.63;;;;;;;18.23;45.93;99448.44;1699781;82;25398;-67
2021/04/29 10:41:23;;;;;;;15.60;11.53;;;;;;;18.33;45.28;99445.95;1639614;84;34978;-66
2021/04/29 10:43:52;;;;;;;20.48;10.63;;;;;;;18.45;45.29;99440.62;1668936;84;25837;-67
2021/04/29 10:46:31;;;;;;;14.85;9.88;;;;;;;18.49;45.22;99438.55;1659544;84;25856;-72
2021/04/29 10:48:59;;;;;;;17.35;9.58;;;;;;;18.59;44.72;99440.58;1670439;84;25604;-72
2021/04/29 10:51:32;;;;;;;16.40;9.58;;;;;;;18.67;44.30;99439.38;1699870;82;25763;-71
2021/04/29 10:54:20;;;;;;;13.55;8.93;;;;;;;18.73;43.48;99443.18;1688674;83;25762;-68
2021/04/29 10:57:06;;;;;;;18.57;9.15;;;;;;;18.72;43.65;99435.50;1699353;82;25775;-71
2021/04/29 10:59:51;;;;;;;17.20;9.25;;;;;;;18.67;43.50;99430.91;1687243;83;26732;-73
2021/04/29 11:02:35;;;;;;;12.75;8.63;;;;;;;18.62;43.47;99425.54;1687271;83;25841;-72
2021/04/29 11:05:00;;;;;;;14.70;9.05;;;;;;;18.70;43.67;99426.98;1699752;82;25755;-73
2021/04/29 11:07:29;;;;;;;13.93;9.18;;;;;;;18.80;43.52;99421.88;1659864;84;25816;-71
2021/04/29 11:10:11;;;;;;;14.93;9.38;;;;;;;18.88;43.63;99410.05;1659114;84;25825;-72
2021/04/29 11:12:48;;;;;;;15.63;8.13;;;;;;;18.96;43.21;99409.64;1651557;84;25970;-73
2021/04/29 11:15:37;;;;;;;10.93;7.08;;;;;;;19.06;42.68;99403.97;1670949;84;25932;-72
2021/04/29 11:18:19;;;;;;;12.98;7.72;;;;;;;19.18;42.69;99401.73;1700868;82;26315;-72
2021/04/29 11:20:57;;;;;;;14.73;8.10;;;;;;;19.34;42.38;99393.45;1687543;83;25301;-67
2021/04/29 11:23:40;;;;;;;20.25;7.67;;;;;;;19.41;42.28;99394.88;1701935;82;26480;-73
2021/04/29 11:26:16;;;;;;;11.30;7.30;;;;;;;19.46;41.60;99393.63;1686702;83;26479;-67
2021/04/29 11:28:55;;;;;;;13.72;7.40;;;;;;;19.51;41.64;99391.56;1700161;82;25719;-66
2021/04/29 11:31:22;;;;;;;13.62;7.47;;;;;;;19.54;41.63;99389.73;1687776;83;31983;-66
2021/04/29 11:33:49;;;;;;;14.75;6.75;;;;;;;19.70;42.08;99391.54;1700507;82;25933;-66